FYKT/KMP METAR and TAF weather

Enter ICAO airport designator
Station Type Date Time Source
FYKT METAR 2022/06/30 13:00 UTC NOAA

FYKT 301300Z /////KT 9999 FEW040 ///// Q////


Station Type Date Time Source
FYKT Decoded METAR 2022/06/30 13:00 UTC NOAA

Keetmanshoop, Namibia (FYKT) 26-32S 018-07E 1100M
Jun 30, 2022 - 09:00 AM EDT / 2022.06.30 1300 UTC
Visibility: greater than 7 mile(s):0
Sky conditions: mostly clear
ob: FYKT 301300Z /////KT 9999 FEW040 ///// Q////
cycle: 13

Station Type Date Time Source
FYKT TAF 2022/06/30 12:23 UTC NOAA

TAF FYKT 301000Z 3012/0112 02017KT CAVOK

Example: see airport list